< Typhoon 200212 2002 Season Typhoon 200214 >
Typhoon 200213 (PHANFONE)
General InformationTrack Information on Google MapsDetailed Wind InformationList of All Images || NewsDisaster Info.ResourceGoogle EarthGE AnimationAtom FeedGeoJSON
Detalied Best Track (Time Zone = UTC)
Year Month Day Hour Lat. Long. Pressure (hPa) Wind (kt) Class Image Chart
2002 8 11 00 8.9 160.5 1004 0 2 Image Chart
2002 8 11 06 9.7 159.3 1002 0 2 Image Chart
2002 8 11 12 10.1 158.5 1002 0 2 Image Chart
2002 8 11 18 10.2 158.4 1000 0 2 Image Chart
2002 8 12 00 10.6 158.2 998 35 3 Image Chart
2002 8 12 06 11.2 158.0 992 40 3 Image Chart
2002 8 12 12 11.9 157.5 990 45 3 Image Chart
2002 8 12 18 12.5 157.3 985 50 4 Image Chart
2002 8 13 00 14.0 156.9 980 55 4 Image Chart
2002 8 13 06 15.5 156.2 980 55 4 Image Chart
2002 8 13 12 16.5 154.6 975 60 4 Image Chart
2002 8 13 18 17.1 153.7 975 60 4 Image Chart
2002 8 14 00 18.3 152.3 970 65 5 Image Chart
2002 8 14 06 19.1 150.6 965 70 5 Image Chart
2002 8 14 12 19.4 149.2 965 70 5 Image Chart
2002 8 14 18 20.2 148.1 965 70 5 Image Chart
2002 8 15 00 21.1 146.9 960 75 5 Image Chart
2002 8 15 06 22.0 145.6 950 80 5 Image Chart
2002 8 15 12 22.8 144.6 945 85 5 Image Chart
2002 8 15 18 23.9 143.3 945 85 5 Image Chart
2002 8 16 00 24.7 142.1 945 85 5 Image Chart
2002 8 16 03 25.1 141.5 940 85 5 Image Chart
2002 8 16 06 25.4 141.0 940 85 5 Image Chart
2002 8 16 09 25.7 140.5 940 85 5 Image Chart
2002 8 16 12 26.0 140.1 945 85 5 Image Chart
2002 8 16 15 26.4 139.8 945 85 5 Image Chart
2002 8 16 18 26.8 139.4 945 80 5 Image Chart
2002 8 16 21 27.2 139.2 945 80 5 Image Chart
2002 8 17 00 27.6 138.8 945 80 5 Image Chart
2002 8 17 03 28.1 138.5 945 80 5 Image Chart
2002 8 17 06 28.5 138.2 945 80 5 Image Chart
2002 8 17 09 29.0 138.0 945 80 5 Image Chart
2002 8 17 12 29.4 137.7 945 80 5 Image Chart
2002 8 17 15 29.8 137.4 945 80 5 Image Chart
2002 8 17 18 30.3 137.2 945 80 5 Image Chart
2002 8 17 21 30.5 136.8 945 80 5 Image Chart
2002 8 18 00 30.8 136.6 945 80 5 Image Chart
2002 8 18 03 30.9 136.5 945 80 5 Image Chart
2002 8 18 06 31.1 136.5 945 80 5 Image Chart
2002 8 18 09 31.2 136.7 950 80 5 Image Chart
2002 8 18 12 31.4 137.0 955 75 5 Image Chart
2002 8 18 15 31.5 137.2 955 75 5 Image Chart
2002 8 18 18 31.8 137.6 955 75 5 Image Chart
2002 8 18 21 32.0 138.2 955 75 5 Image Chart
2002 8 19 00 32.3 138.9 960 70 5 Image Chart
2002 8 19 03 32.5 139.5 960 70 5 Image Chart
2002 8 19 06 32.7 139.8 965 65 5 Image Chart
2002 8 19 07 32.9 139.9 965 65 5 Image Chart
2002 8 19 09 33.2 140.1 965 65 5 Image Chart
2002 8 19 12 33.3 140.8 970 65 5 Image Chart
2002 8 19 15 33.3 141.8 970 65 5 Image Chart
2002 8 19 18 33.6 143.0 975 60 4 Image Chart
2002 8 19 21 33.6 144.0 975 60 4 Image Chart
2002 8 20 00 34.3 146.1 975 60 4 Image Chart
2002 8 20 06 36.2 149.1 975 60 4 Image Chart
2002 8 20 12 38.4 152.4 975 60 4 Image Chart
2002 8 20 18 41.9 153.3 970 60 4 Image Chart
2002 8 21 00 43.9 151.6 970 0 6 Image Chart
2002 8 21 06 44.1 151.9 972 0 6 Image Chart
2002 8 21 12 44.5 151.6 976 0 6 Image Chart
2002 8 21 18 44.8 152.0 980 0 6 Image Chart
2002 8 22 00 44.9 152.5 982 0 6 Image Chart
2002 8 22 06 44.9 154.1 984 0 6 Image Chart
2002 8 22 12 45.6 156.3 986 0 6 Image Chart
2002 8 22 18 47.1 158.0 990 0 6 Image Chart
2002 8 23 00 47.3 160.5 994 0 6 Image Chart
2002 8 23 06 48.1 162.2 996 0 6 Image Chart
2002 8 23 12 48.9 164.5 998 0 6 Image Chart
2002 8 23 18 49.3 167.7 1000 0 6 Image Chart
2002 8 24 00 49.5 171.2 1000 0 6 Image Chart
2002 8 24 06 49.8 175.6 998 0 6 Image Chart
2002 8 24 12 50.9 178.4 998 0 6 Image Chart
2002 8 24 18 50.9 179.3 998 0 6 Image Chart
2002 8 25 00 50.2 181.5 998 0 6 Image Chart
Japan Meteorological Agency Best Track Data | Correction Date : 2006-01-18
< Typhoon 200212 2002 Season Typhoon 200214 >

Help